createdAt,value
2023-05-21T00:02:12.028Z,15.78
2023-05-21T00:04:43.445Z,15.66
2023-05-21T00:07:15.436Z,15.71
2023-05-21T00:09:46.229Z,15.73
2023-05-21T00:12:15.188Z,15.73
2023-05-21T00:14:47.614Z,15.70
2023-05-21T00:17:16.575Z,15.66
2023-05-21T00:19:46.105Z,15.64
2023-05-21T00:22:26.768Z,15.60
2023-05-21T00:24:59.658Z,15.50
2023-05-21T00:27:28.242Z,15.41
2023-05-21T00:29:57.408Z,15.44
2023-05-21T00:32:29.828Z,15.34
2023-05-21T00:34:59.593Z,15.33
2023-05-21T00:37:30.217Z,15.33
2023-05-21T00:40:02.038Z,15.32
2023-05-21T00:42:32.285Z,15.32
2023-05-21T00:45:04.311Z,15.25
2023-05-21T00:47:38.746Z,15.23
2023-05-21T00:50:09.389Z,15.20
2023-05-21T00:52:43.720Z,15.17
2023-05-21T00:55:17.849Z,15.08
2023-05-21T00:57:50.035Z,15.04
2023-05-21T01:00:20.704Z,14.94
2023-05-21T01:02:53.519Z,14.96
2023-05-21T01:05:25.048Z,14.87
2023-05-21T01:08:03.700Z,14.94
2023-05-21T01:10:36.695Z,14.85
2023-05-21T01:13:10.479Z,14.83
2023-05-21T01:15:55.858Z,14.81
2023-05-21T01:18:29.132Z,14.82
2023-05-21T01:20:58.459Z,14.75
2023-05-21T01:23:30.469Z,14.73
2023-05-21T01:25:59.924Z,14.68
2023-05-21T01:28:30.097Z,14.60
2023-05-21T01:31:05.257Z,14.49
2023-05-21T01:33:45.411Z,14.50
2023-05-21T01:36:19.246Z,14.49
2023-05-21T01:38:57.356Z,14.44
2023-05-21T01:41:27.866Z,14.44
2023-05-21T01:43:58.710Z,14.35
2023-05-21T01:46:35.383Z,14.30
2023-05-21T01:49:06.208Z,14.24
2023-05-21T01:51:36.446Z,14.23
2023-05-21T01:54:07.717Z,14.16
2023-05-21T01:56:37.100Z,14.12
2023-05-21T01:59:06.126Z,14.09
2023-05-21T02:01:41.035Z,14.15
2023-05-21T02:04:11.615Z,14.04
2023-05-21T02:07:10.876Z,14.02
2023-05-21T02:09:45.164Z,14.05
2023-05-21T02:12:15.126Z,13.97
2023-05-21T02:14:49.262Z,13.84
2023-05-21T02:17:18.865Z,13.93
2023-05-21T02:19:47.861Z,13.97
2023-05-21T02:22:18.253Z,14.00
2023-05-21T02:24:49.634Z,13.89
2023-05-21T02:27:22.774Z,13.87
2023-05-21T02:29:54.186Z,13.89
2023-05-21T02:32:27.893Z,13.94
2023-05-21T02:34:59.977Z,13.92
2023-05-21T02:37:34.027Z,13.97
2023-05-21T02:40:11.240Z,13.91
2023-05-21T02:42:46.032Z,13.78
2023-05-21T02:45:22.380Z,13.81
2023-05-21T02:47:52.738Z,13.72
2023-05-21T02:51:05.569Z,13.58
2023-05-21T02:53:36.319Z,13.67
2023-05-21T02:56:09.607Z,13.69
2023-05-21T02:58:38.874Z,13.67
2023-05-21T03:01:16.407Z,13.59
2023-05-21T03:03:49.882Z,13.60
2023-05-21T03:06:26.310Z,13.61
2023-05-21T03:09:21.130Z,13.59
2023-05-21T03:11:56.754Z,13.61
2023-05-21T03:14:29.162Z,13.63
2023-05-21T03:16:59.221Z,13.59
2023-05-21T03:19:30.868Z,13.63
2023-05-21T03:22:03.167Z,13.66
2023-05-21T03:24:35.699Z,13.65
2023-05-21T03:27:07.592Z,13.64
2023-05-21T03:29:37.872Z,13.59
2023-05-21T03:32:09.169Z,13.58
2023-05-21T03:34:37.957Z,13.61
2023-05-21T03:37:07.581Z,13.62
2023-05-21T03:39:36.907Z,13.60
2023-05-21T03:42:07.848Z,13.57
2023-05-21T03:44:47.006Z,13.56
2023-05-21T03:47:39.159Z,13.61
2023-05-21T03:50:12.857Z,13.63
2023-05-21T03:52:55.050Z,13.69
2023-05-21T03:55:25.095Z,13.68
2023-05-21T03:57:59.751Z,13.73
2023-05-21T04:00:31.037Z,13.77
2023-05-21T04:03:02.615Z,13.78
2023-05-21T04:05:32.499Z,13.80
2023-05-21T04:08:05.332Z,13.81
2023-05-21T04:10:41.339Z,13.85
2023-05-21T04:13:21.899Z,13.89
2023-05-21T04:15:51.149Z,13.95
2023-05-21T04:18:20.817Z,14.01
2023-05-21T04:20:50.096Z,13.99
2023-05-21T04:23:19.364Z,14.14
2023-05-21T04:25:51.103Z,14.18
2023-05-21T04:28:21.428Z,14.25
2023-05-21T04:30:51.470Z,14.30
2023-05-21T04:33:20.500Z,14.47
2023-05-21T04:35:51.965Z,14.43
2023-05-21T04:38:21.287Z,14.51
2023-05-21T04:40:52.685Z,14.61
2023-05-21T04:43:26.607Z,14.69
2023-05-21T04:46:01.614Z,14.77
2023-05-21T04:48:31.039Z,14.79
2023-05-21T04:51:01.545Z,14.79
2023-05-21T04:53:31.242Z,14.94
2023-05-21T04:56:01.114Z,14.91
2023-05-21T04:58:34.605Z,15.08
2023-05-21T05:01:04.382Z,15.20
2023-05-21T05:03:33.544Z,15.31
2023-05-21T05:06:04.611Z,15.30
2023-05-21T05:08:35.042Z,15.36
2023-05-21T05:11:04.094Z,15.42
2023-05-21T05:13:34.244Z,15.51
2023-05-21T05:16:03.545Z,15.63
2023-05-21T05:18:33.336Z,15.73
2023-05-21T05:21:02.786Z,15.85
2023-05-21T05:23:32.496Z,15.92
2023-05-21T05:26:01.626Z,16.02
2023-05-21T05:28:31.528Z,16.12
2023-05-21T05:31:03.026Z,16.26
2023-05-21T05:33:32.425Z,16.32
2023-05-21T05:36:01.824Z,16.41
2023-05-21T05:38:31.360Z,16.55
2023-05-21T05:41:05.847Z,16.71
2023-05-21T05:43:34.893Z,16.86
2023-05-21T05:46:05.459Z,16.98
2023-05-21T05:48:34.460Z,17.17
2023-05-21T05:51:07.168Z,17.33
2023-05-21T05:53:37.701Z,17.54
2023-05-21T05:56:08.931Z,17.69
2023-05-21T05:58:39.254Z,17.82
2023-05-21T06:01:16.845Z,17.99
2023-05-21T06:03:47.699Z,18.13
2023-05-21T06:06:20.678Z,18.27
2023-05-21T06:08:50.289Z,18.38
2023-05-21T06:11:24.372Z,18.57
2023-05-21T06:13:53.434Z,18.80
2023-05-21T06:16:28.485Z,18.94
2023-05-21T06:19:00.336Z,19.00
2023-05-21T06:21:29.898Z,19.01
2023-05-21T06:23:58.946Z,19.11
2023-05-21T06:26:27.816Z,19.27
2023-05-21T06:28:59.373Z,19.41
2023-05-21T06:31:30.299Z,19.55
2023-05-21T06:34:01.764Z,19.72
2023-05-21T06:36:32.933Z,19.81
2023-05-21T06:39:05.660Z,19.93
2023-05-21T06:41:35.510Z,20.05
2023-05-21T06:44:19.038Z,20.19
2023-05-21T06:47:27.639Z,20.36
2023-05-21T06:49:58.699Z,20.48
2023-05-21T06:52:27.794Z,20.59
2023-05-21T06:54:56.968Z,20.79
2023-05-21T06:57:29.182Z,20.92
2023-05-21T07:00:00.149Z,21.11
2023-05-21T07:02:31.439Z,21.20
2023-05-21T07:05:01.603Z,21.24
2023-05-21T07:07:30.725Z,21.34
2023-05-21T07:10:01.126Z,21.48
2023-05-21T07:12:32.148Z,21.64
2023-05-21T07:15:01.834Z,21.73
2023-05-21T07:17:34.067Z,21.84
2023-05-21T07:20:02.957Z,21.85
2023-05-21T07:22:32.746Z,21.88
2023-05-21T07:25:04.940Z,21.97
2023-05-21T07:27:34.128Z,22.13
2023-05-21T07:30:03.388Z,22.27
2023-05-21T07:32:36.443Z,22.48
2023-05-21T07:35:06.220Z,22.56
2023-05-21T07:37:35.452Z,22.69
2023-05-21T07:40:08.001Z,22.80
2023-05-21T07:42:44.394Z,22.92
2023-05-21T07:45:15.220Z,22.93
2023-05-21T07:47:48.198Z,23.03
2023-05-21T07:50:17.520Z,23.17
2023-05-21T07:52:46.749Z,23.37
2023-05-21T07:55:15.826Z,23.40
2023-05-21T07:57:50.062Z,23.48
2023-05-21T08:00:21.156Z,23.64
2023-05-21T08:02:57.479Z,23.79
2023-05-21T08:05:27.923Z,23.93
2023-05-21T08:07:57.103Z,23.98
2023-05-21T08:10:26.854Z,24.10
2023-05-21T08:12:56.181Z,24.27
2023-05-21T08:15:27.384Z,24.41
2023-05-21T08:17:57.698Z,24.52
2023-05-21T08:20:33.953Z,24.67
2023-05-21T08:23:04.157Z,24.77
2023-05-21T08:25:42.880Z,24.88
2023-05-21T08:28:14.520Z,24.94
2023-05-21T08:30:45.074Z,25.04
2023-05-21T08:33:16.002Z,25.15
2023-05-21T08:35:46.751Z,25.28
2023-05-21T08:38:28.657Z,25.46
2023-05-21T08:41:24.636Z,25.59
2023-05-21T08:43:58.615Z,25.65
2023-05-21T08:46:34.027Z,25.69
2023-05-21T08:49:05.648Z,25.90
2023-05-21T08:51:35.824Z,25.93
2023-05-21T08:54:06.833Z,26.04
2023-05-21T08:56:36.622Z,26.28
2023-05-21T08:59:06.219Z,26.38
2023-05-21T09:01:38.942Z,26.44
2023-05-21T09:04:21.623Z,26.45
2023-05-21T09:06:58.249Z,26.64
2023-05-21T09:09:53.439Z,26.86
2023-05-21T09:12:22.532Z,26.86
2023-05-21T09:16:02.060Z,26.97
2023-05-21T09:18:32.428Z,27.01
2023-05-21T09:21:28.079Z,27.18
2023-05-21T09:24:01.988Z,27.22
2023-05-21T09:26:32.203Z,27.42
2023-05-21T09:29:07.780Z,27.03
2023-05-21T09:31:38.110Z,27.12
2023-05-21T09:34:07.355Z,27.37
2023-05-21T09:36:41.373Z,27.19
2023-05-21T09:39:12.143Z,27.19
2023-05-21T09:41:44.967Z,27.32
2023-05-21T09:44:14.665Z,27.33
2023-05-21T09:46:43.802Z,27.47
2023-05-21T09:49:26.487Z,27.69
2023-05-21T09:52:02.392Z,27.92
2023-05-21T09:54:34.120Z,28.07
2023-05-21T09:57:03.766Z,28.06
2023-05-21T09:59:41.434Z,28.21
2023-05-21T10:02:19.117Z,28.38
2023-05-21T10:04:50.726Z,28.29
2023-05-21T10:07:21.851Z,28.39
2023-05-21T10:09:51.373Z,28.55
2023-05-21T10:12:21.243Z,28.72
2023-05-21T10:15:05.413Z,28.83
2023-05-21T10:17:34.087Z,28.78
2023-05-21T10:20:05.265Z,28.79
2023-05-21T10:22:37.264Z,28.77
2023-05-21T10:25:08.413Z,28.99
2023-05-21T10:27:38.910Z,29.21
2023-05-21T10:30:10.414Z,29.42
2023-05-21T10:32:44.444Z,29.63
2023-05-21T10:35:17.525Z,29.38
2023-05-21T10:37:48.486Z,29.25
2023-05-21T10:40:18.078Z,29.26
2023-05-21T10:43:15.010Z,29.21
2023-05-21T10:45:58.114Z,29.12
2023-05-21T10:48:44.565Z,29.02
2023-05-21T10:51:29.059Z,28.95
2023-05-21T10:54:14.742Z,28.53
2023-05-21T10:56:48.612Z,27.93
2023-05-21T10:59:37.621Z,27.69
2023-05-21T11:02:15.484Z,28.06
2023-05-21T11:04:49.489Z,28.45
2023-05-21T11:07:25.016Z,28.83
2023-05-21T11:09:56.425Z,29.11
2023-05-21T11:12:26.487Z,29.10
2023-05-21T11:15:04.153Z,29.28
2023-05-21T11:17:42.411Z,29.26
2023-05-21T11:20:15.560Z,29.25
2023-05-21T11:22:48.053Z,29.45
2023-05-21T11:25:19.083Z,29.47
2023-05-21T11:27:49.338Z,29.71
2023-05-21T11:30:19.731Z,29.77
2023-05-21T11:33:21.242Z,29.81
2023-05-21T11:36:00.696Z,29.90
2023-05-21T11:38:31.275Z,30.05
2023-05-21T11:41:05.423Z,30.17
2023-05-21T11:43:34.440Z,30.22
2023-05-21T11:46:04.555Z,30.19
2023-05-21T11:48:33.969Z,30.29
2023-05-21T11:51:03.652Z,30.13
2023-05-21T11:53:32.871Z,30.04
2023-05-21T11:56:04.445Z,29.88
2023-05-21T11:58:34.168Z,30.02
2023-05-21T12:01:03.412Z,30.01
2023-05-21T12:03:36.632Z,29.92
2023-05-21T12:06:08.697Z,30.12
2023-05-21T12:08:38.764Z,29.92
2023-05-21T12:11:08.949Z,29.80
2023-05-21T12:13:38.884Z,29.92
2023-05-21T12:16:09.334Z,30.16
2023-05-21T12:18:40.596Z,30.19
2023-05-21T12:21:12.498Z,30.16
2023-05-21T12:23:42.435Z,30.11
2023-05-21T12:26:14.299Z,30.22
2023-05-21T12:28:44.022Z,30.13
2023-05-21T12:31:17.359Z,30.18
2023-05-21T12:33:47.793Z,30.20
2023-05-21T12:36:23.903Z,30.03
2023-05-21T12:38:53.305Z,29.90
2023-05-21T12:41:24.704Z,29.73
2023-05-21T12:43:54.254Z,29.72
2023-05-21T12:46:23.924Z,29.71
2023-05-21T12:48:55.659Z,29.56
2023-05-21T12:51:24.659Z,29.45
2023-05-21T12:53:54.795Z,29.38
2023-05-21T12:56:25.768Z,29.43
2023-05-21T12:58:55.852Z,29.20
2023-05-21T13:01:24.805Z,29.31
2023-05-21T13:03:54.043Z,29.68
2023-05-21T13:06:23.539Z,29.80
2023-05-21T13:08:52.657Z,29.83
2023-05-21T13:11:25.330Z,29.90
2023-05-21T13:13:54.974Z,29.34
2023-05-21T13:16:24.156Z,29.09
2023-05-21T13:18:53.268Z,29.06
2023-05-21T13:21:25.192Z,29.12
2023-05-21T13:23:54.203Z,28.88
2023-05-21T13:26:24.824Z,28.89
2023-05-21T13:28:53.962Z,28.88
2023-05-21T13:31:23.187Z,28.72
2023-05-21T13:33:52.604Z,28.38
2023-05-21T13:36:22.233Z,28.37
2023-05-21T13:38:51.266Z,28.36
2023-05-21T13:41:20.271Z,28.38
2023-05-21T13:43:51.124Z,28.42
2023-05-21T13:46:21.388Z,28.23
2023-05-21T13:48:52.874Z,28.23
2023-05-21T13:52:01.325Z,28.22
2023-05-21T13:57:34.742Z,28.13
2023-05-21T14:00:06.331Z,28.09
2023-05-21T14:02:43.470Z,28.03
2023-05-21T14:05:20.635Z,27.98
2023-05-21T14:07:52.600Z,28.05
2023-05-21T14:10:21.901Z,28.07
2023-05-21T14:12:59.233Z,28.01
2023-05-21T14:15:37.270Z,27.91
2023-05-21T14:21:05.101Z,27.93
2023-05-21T14:23:33.997Z,27.75
2023-05-21T14:26:02.964Z,27.88
2023-05-21T14:28:38.863Z,27.82
2023-05-21T14:31:15.227Z,27.79
2023-05-21T14:33:44.148Z,27.74
2023-05-21T14:36:13.137Z,27.72
2023-05-21T14:38:57.811Z,27.45
2023-05-21T14:41:42.373Z,27.45
2023-05-21T14:44:12.334Z,27.34
2023-05-21T14:49:50.898Z,27.10
2023-05-21T14:53:04.055Z,26.91
2023-05-21T14:55:37.204Z,26.71
2023-05-21T14:58:09.964Z,26.63
2023-05-21T15:07:29.601Z,26.26
2023-05-21T15:09:58.721Z,26.06
2023-05-21T15:12:27.586Z,25.97
2023-05-21T15:14:57.203Z,25.86
2023-05-21T15:17:26.014Z,25.76
2023-05-21T15:19:55.964Z,25.55
2023-05-21T15:22:26.282Z,25.52
2023-05-21T15:24:55.173Z,25.45
2023-05-21T15:27:25.209Z,25.45
2023-05-21T15:29:54.465Z,25.39
2023-05-21T15:32:24.376Z,25.31
2023-05-21T15:34:53.631Z,25.24
2023-05-21T15:37:22.957Z,25.07
2023-05-21T15:39:54.404Z,24.95
2023-05-21T15:42:23.379Z,24.84
2023-05-21T15:44:55.939Z,24.73
2023-05-21T15:47:25.290Z,24.65
2023-05-21T15:49:54.514Z,24.57
2023-05-21T15:52:23.771Z,24.44
2023-05-21T15:54:55.148Z,24.34
2023-05-21T15:57:24.210Z,24.25
2023-05-21T15:59:56.593Z,24.19
2023-05-21T16:02:25.917Z,24.09
2023-05-21T16:04:55.284Z,24.00
2023-05-21T16:07:25.226Z,23.92
2023-05-21T16:09:56.030Z,23.83
2023-05-21T16:12:24.734Z,23.76
2023-05-21T16:14:53.726Z,23.72
2023-05-21T16:17:24.390Z,23.69
2023-05-21T16:19:53.814Z,23.67
2023-05-21T16:22:24.414Z,23.60
2023-05-21T16:24:56.675Z,23.52
2023-05-21T16:27:27.554Z,23.48
2023-05-21T16:29:57.757Z,23.41
2023-05-21T16:32:28.603Z,23.31
2023-05-21T16:34:57.898Z,23.26
2023-05-21T16:37:30.333Z,23.18
2023-05-21T16:39:59.994Z,23.11
2023-05-21T16:42:41.900Z,23.03
2023-05-21T16:45:13.605Z,22.94
2023-05-21T16:47:45.124Z,22.91
2023-05-21T16:50:14.592Z,22.81
2023-05-21T16:52:43.997Z,22.76
2023-05-21T16:55:13.973Z,22.69
2023-05-21T16:57:44.501Z,22.66
2023-05-21T17:00:24.537Z,22.57
2023-05-21T17:03:00.540Z,22.49
2023-05-21T17:05:34.131Z,22.35
2023-05-21T17:08:04.122Z,22.27
2023-05-21T17:10:34.830Z,22.05
2023-05-21T17:13:18.316Z,21.98
2023-05-21T17:15:51.281Z,21.89
2023-05-21T17:18:20.832Z,21.84
2023-05-21T17:20:51.083Z,21.76
2023-05-21T17:23:20.425Z,21.71
2023-05-21T17:25:49.859Z,21.63
2023-05-21T17:28:20.748Z,21.52
2023-05-21T17:30:50.012Z,21.45
2023-05-21T17:33:20.563Z,21.43
2023-05-21T17:35:49.598Z,21.35
2023-05-21T17:38:21.353Z,21.29
2023-05-21T17:40:51.206Z,21.21
2023-05-21T17:43:21.844Z,21.10
2023-05-21T17:45:53.418Z,21.01
2023-05-21T17:48:30.436Z,20.92
2023-05-21T17:51:02.328Z,20.84
2023-05-21T17:53:31.338Z,20.78
2023-05-21T17:56:00.361Z,20.70
2023-05-21T17:58:34.971Z,20.59
2023-05-21T18:01:04.225Z,20.50
2023-05-21T18:03:36.614Z,20.38
2023-05-21T18:06:08.193Z,20.27
2023-05-21T18:08:38.567Z,20.16
2023-05-21T18:11:07.478Z,20.09
2023-05-21T18:13:37.726Z,20.03
2023-05-21T18:16:06.905Z,19.93
2023-05-21T18:18:36.014Z,19.82
2023-05-21T18:21:05.902Z,19.66
2023-05-21T18:23:34.571Z,19.54
2023-05-21T18:26:11.705Z,19.42
2023-05-21T18:28:45.450Z,19.29
2023-05-21T18:31:15.953Z,19.17
2023-05-21T18:33:45.002Z,19.13
2023-05-21T18:36:13.594Z,19.22
2023-05-21T18:38:42.787Z,19.15
2023-05-21T18:41:11.856Z,19.03
2023-05-21T18:43:45.897Z,18.87
2023-05-21T18:46:15.051Z,18.75
2023-05-21T18:48:44.003Z,18.60
2023-05-21T18:51:12.800Z,18.36
2023-05-21T18:53:41.962Z,18.17
2023-05-21T18:56:14.090Z,18.04
2023-05-21T18:58:44.815Z,17.95
2023-05-21T19:01:14.064Z,17.94
2023-05-21T19:03:43.082Z,17.88
2023-05-21T19:06:12.139Z,17.80
2023-05-21T19:08:41.505Z,17.75
2023-05-21T19:11:12.172Z,17.71
2023-05-21T19:13:40.951Z,17.69
2023-05-21T19:16:11.808Z,17.64
2023-05-21T19:18:43.500Z,17.58
2023-05-21T19:21:12.813Z,17.58
2023-05-21T19:23:52.012Z,17.47
2023-05-21T19:26:23.512Z,17.29
2023-05-21T19:28:55.918Z,17.15
2023-05-21T19:31:26.721Z,17.05
2023-05-21T19:33:56.234Z,17.04
2023-05-21T19:36:25.931Z,16.99
2023-05-21T19:38:54.835Z,16.73
2023-05-21T19:41:24.155Z,16.68
2023-05-21T19:43:53.258Z,16.65
2023-05-21T19:46:22.940Z,16.63
2023-05-21T19:48:53.673Z,16.62
2023-05-21T19:51:23.225Z,16.63
2023-05-21T19:53:52.379Z,16.59
2023-05-21T19:56:22.120Z,16.55
2023-05-21T19:58:50.892Z,16.56
2023-05-21T20:01:24.049Z,16.50
2023-05-21T20:03:55.478Z,16.47
2023-05-21T20:06:25.186Z,16.39
2023-05-21T20:08:55.499Z,16.29
2023-05-21T20:11:24.347Z,16.24
2023-05-21T20:13:53.525Z,16.24
2023-05-21T20:16:23.402Z,16.29
2023-05-21T20:18:57.261Z,16.20
2023-05-21T20:21:26.362Z,16.15
2023-05-21T20:23:55.982Z,16.09
2023-05-21T20:26:26.363Z,16.03
2023-05-21T20:28:55.984Z,15.90
2023-05-21T20:31:27.976Z,15.79
2023-05-21T20:33:59.002Z,15.71
2023-05-21T20:36:30.640Z,15.62
2023-05-21T20:39:02.219Z,15.52
2023-05-21T20:41:37.032Z,15.41
2023-05-21T20:44:07.523Z,15.35
2023-05-21T20:46:41.309Z,15.32
2023-05-21T20:49:12.053Z,15.28
2023-05-21T20:51:40.580Z,15.22
2023-05-21T20:54:09.232Z,15.07
2023-05-21T20:56:42.602Z,14.90
2023-05-21T20:59:12.281Z,14.80
2023-05-21T21:01:41.601Z,14.64
2023-05-21T21:04:12.285Z,14.52
2023-05-21T21:06:41.282Z,14.46
2023-05-21T21:09:10.132Z,14.43
2023-05-21T21:11:39.360Z,14.34
2023-05-21T21:14:11.065Z,14.39
2023-05-21T21:16:39.910Z,14.30
2023-05-21T21:19:08.773Z,14.31
2023-05-21T21:21:39.110Z,14.35
2023-05-21T21:24:09.023Z,14.33
2023-05-21T21:26:37.740Z,14.33
2023-05-21T21:29:06.571Z,14.22
2023-05-21T21:31:35.351Z,14.23
2023-05-21T21:34:04.456Z,14.24
2023-05-21T21:36:35.655Z,14.22
2023-05-21T21:39:05.870Z,14.18
2023-05-21T21:41:34.620Z,14.16
2023-05-21T21:44:04.035Z,14.20
2023-05-21T21:46:32.801Z,14.27
2023-05-21T21:49:02.736Z,14.18
2023-05-21T21:51:31.533Z,14.12
2023-05-21T21:54:00.379Z,14.05
2023-05-21T21:56:31.197Z,13.98
2023-05-21T21:59:02.121Z,13.95
2023-05-21T22:01:33.459Z,13.87
2023-05-21T22:04:03.109Z,13.91
2023-05-21T22:06:32.167Z,13.73
2023-05-21T22:09:01.002Z,13.66
2023-05-21T22:11:31.602Z,13.68
2023-05-21T22:14:01.059Z,13.56
2023-05-21T22:16:29.859Z,13.46
2023-05-21T22:18:59.528Z,13.26
2023-05-21T22:21:33.117Z,13.25
2023-05-21T22:24:02.160Z,13.28
2023-05-21T22:26:32.749Z,13.33
2023-05-21T22:29:03.114Z,13.41
2023-05-21T22:31:32.295Z,13.46
2023-05-21T22:34:04.079Z,13.53
2023-05-21T22:36:33.818Z,13.62
2023-05-21T22:39:02.489Z,13.69
2023-05-21T22:41:33.083Z,13.80
2023-05-21T22:44:02.023Z,13.78
2023-05-21T22:46:31.102Z,13.72
2023-05-21T22:49:00.341Z,13.70
2023-05-21T22:51:34.974Z,13.67
2023-05-21T22:54:04.101Z,13.65
2023-05-21T22:56:34.847Z,13.58
2023-05-21T22:59:03.483Z,13.49
2023-05-21T23:01:33.295Z,13.40
2023-05-21T23:04:02.837Z,13.30
2023-05-21T23:06:34.102Z,13.26
2023-05-21T23:09:06.636Z,13.19
2023-05-21T23:11:38.744Z,13.15
2023-05-21T23:14:07.423Z,13.19
2023-05-21T23:16:36.463Z,13.20
2023-05-21T23:19:08.283Z,13.23
2023-05-21T23:21:37.191Z,13.21
2023-05-21T23:24:07.628Z,13.21
2023-05-21T23:26:39.092Z,13.25
2023-05-21T23:29:08.404Z,13.26
2023-05-21T23:31:38.287Z,13.21
2023-05-21T23:34:10.512Z,13.20
2023-05-21T23:36:40.594Z,13.18
2023-05-21T23:39:11.052Z,13.17
2023-05-21T23:41:41.323Z,13.19
2023-05-21T23:44:11.403Z,13.18
2023-05-21T23:46:40.457Z,13.22
2023-05-21T23:49:09.291Z,13.25
2023-05-21T23:51:38.898Z,13.24
2023-05-21T23:54:08.249Z,13.26
2023-05-21T23:56:37.492Z,13.25
2023-05-21T23:59:07.517Z,13.26
